sensor_id;sensor_type;location;lat;lon;timestamp;P1;durP1;ratioP1;P2;durP2;ratioP2
13879;SDS011;7010;48.200;16.332;2022-08-06T00:02:36;3.47;;;3.17;;
13879;SDS011;7010;48.200;16.332;2022-08-06T00:05:07;3.55;;;3.35;;
13879;SDS011;7010;48.200;16.332;2022-08-06T00:07:48;4.13;;;3.80;;
13879;SDS011;7010;48.200;16.332;2022-08-06T00:10:18;4.28;;;3.50;;
13879;SDS011;7010;48.200;16.332;2022-08-06T00:12:55;4.13;;;3.45;;
13879;SDS011;7010;48.200;16.332;2022-08-06T00:15:26;2.90;;;2.70;;
13879;SDS011;7010;48.200;16.332;2022-08-06T00:18:16;3.03;;;2.78;;
13879;SDS011;7010;48.200;16.332;2022-08-06T00:20:45;3.97;;;3.65;;
13879;SDS011;7010;48.200;16.332;2022-08-06T00:23:16;4.68;;;3.05;;
13879;SDS011;7010;48.200;16.332;2022-08-06T00:25:49;2.65;;;2.55;;
13879;SDS011;7010;48.200;16.332;2022-08-06T00:28:19;3.45;;;3.08;;
13879;SDS011;7010;48.200;16.332;2022-08-06T00:30:57;8.13;;;2.88;;
13879;SDS011;7010;48.200;16.332;2022-08-06T00:33:38;3.22;;;2.92;;
13879;SDS011;7010;48.200;16.332;2022-08-06T00:36:22;3.40;;;3.10;;
13879;SDS011;7010;48.200;16.332;2022-08-06T00:38:54;2.72;;;2.53;;
13879;SDS011;7010;48.200;16.332;2022-08-06T00:41:25;2.80;;;2.60;;
13879;SDS011;7010;48.200;16.332;2022-08-06T00:44:07;3.60;;;3.28;;
13879;SDS011;7010;48.200;16.332;2022-08-06T00:46:39;2.97;;;2.75;;
13879;SDS011;7010;48.200;16.332;2022-08-06T00:49:09;3.50;;;3.13;;
13879;SDS011;7010;48.200;16.332;2022-08-06T00:51:38;2.88;;;2.60;;
13879;SDS011;7010;48.200;16.332;2022-08-06T00:54:17;3.70;;;3.00;;
13879;SDS011;7010;48.200;16.332;2022-08-06T00:57:00;7.38;;;2.90;;
13879;SDS011;7010;48.200;16.332;2022-08-06T00:59:37;3.08;;;2.88;;
13879;SDS011;7010;48.200;16.332;2022-08-06T01:02:08;2.92;;;2.72;;
13879;SDS011;7010;48.200;16.332;2022-08-06T01:04:41;2.83;;;2.63;;
13879;SDS011;7010;48.200;16.332;2022-08-06T01:07:11;3.25;;;2.97;;
13879;SDS011;7010;48.200;16.332;2022-08-06T01:09:41;3.05;;;2.85;;
13879;SDS011;7010;48.200;16.332;2022-08-06T01:12:24;3.60;;;3.30;;
13879;SDS011;7010;48.200;16.332;2022-08-06T01:15:01;9.75;;;2.72;;
13879;SDS011;7010;48.200;16.332;2022-08-06T01:17:41;3.47;;;3.17;;
13879;SDS011;7010;48.200;16.332;2022-08-06T01:20:27;3.63;;;2.72;;
13879;SDS011;7010;48.200;16.332;2022-08-06T01:23:31;3.30;;;3.00;;
13879;SDS011;7010;48.200;16.332;2022-08-06T01:26:22;3.40;;;3.10;;
13879;SDS011;7010;48.200;16.332;2022-08-06T01:29:05;2.40;;;2.22;;
13879;SDS011;7010;48.200;16.332;2022-08-06T01:31:41;3.53;;;3.22;;
13879;SDS011;7010;48.200;16.332;2022-08-06T01:34:18;2.90;;;2.70;;
13879;SDS011;7010;48.200;16.332;2022-08-06T01:36:58;3.08;;;2.63;;
13879;SDS011;7010;48.200;16.332;2022-08-06T01:39:31;3.05;;;2.85;;
13879;SDS011;7010;48.200;16.332;2022-08-06T01:42:21;2.47;;;2.28;;
13879;SDS011;7010;48.200;16.332;2022-08-06T01:45:03;4.78;;;2.80;;
13879;SDS011;7010;48.200;16.332;2022-08-06T01:47:34;2.50;;;2.33;;
13879;SDS011;7010;48.200;16.332;2022-08-06T01:50:21;3.00;;;2.70;;
13879;SDS011;7010;48.200;16.332;2022-08-06T01:52:54;2.63;;;2.50;;
13879;SDS011;7010;48.200;16.332;2022-08-06T01:55:26;4.32;;;2.45;;
13879;SDS011;7010;48.200;16.332;2022-08-06T01:58:17;6.75;;;3.25;;
13879;SDS011;7010;48.200;16.332;2022-08-06T02:00:56;6.43;;;3.03;;
13879;SDS011;7010;48.200;16.332;2022-08-06T02:03:30;3.05;;;2.30;;
13879;SDS011;7010;48.200;16.332;2022-08-06T02:06:18;3.83;;;2.92;;
13879;SDS011;7010;48.200;16.332;2022-08-06T02:08:55;4.55;;;2.72;;
13879;SDS011;7010;48.200;16.332;2022-08-06T02:11:48;6.43;;;3.22;;
13879;SDS011;7010;48.200;16.332;2022-08-06T02:14:32;2.97;;;2.78;;
13879;SDS011;7010;48.200;16.332;2022-08-06T02:17:10;3.20;;;2.92;;
13879;SDS011;7010;48.200;16.332;2022-08-06T02:19:42;2.55;;;2.38;;
13879;SDS011;7010;48.200;16.332;2022-08-06T02:22:34;2.55;;;2.35;;
13879;SDS011;7010;48.200;16.332;2022-08-06T02:25:09;3.33;;;2.90;;
13879;SDS011;7010;48.200;16.332;2022-08-06T02:27:56;2.88;;;2.60;;
13879;SDS011;7010;48.200;16.332;2022-08-06T02:30:28;3.20;;;2.90;;
13879;SDS011;7010;48.200;16.332;2022-08-06T02:33:05;3.15;;;2.92;;
13879;SDS011;7010;48.200;16.332;2022-08-06T02:35:38;2.90;;;2.70;;
13879;SDS011;7010;48.200;16.332;2022-08-06T02:38:11;2.95;;;2.75;;
13879;SDS011;7010;48.200;16.332;2022-08-06T02:40:56;2.88;;;2.63;;
13879;SDS011;7010;48.200;16.332;2022-08-06T02:43:40;4.55;;;2.45;;
13879;SDS011;7010;48.200;16.332;2022-08-06T02:46:17;12.25;;;3.10;;
13879;SDS011;7010;48.200;16.332;2022-08-06T02:48:54;2.88;;;2.67;;
13879;SDS011;7010;48.200;16.332;2022-08-06T02:51:30;9.80;;;3.10;;
13879;SDS011;7010;48.200;16.332;2022-08-06T02:54:22;2.90;;;2.70;;
13879;SDS011;7010;48.200;16.332;2022-08-06T02:57:02;3.30;;;2.78;;
13879;SDS011;7010;48.200;16.332;2022-08-06T02:59:35;3.15;;;2.85;;
13879;SDS011;7010;48.200;16.332;2022-08-06T03:02:09;3.25;;;2.95;;
13879;SDS011;7010;48.200;16.332;2022-08-06T03:04:53;2.90;;;2.63;;
13879;SDS011;7010;48.200;16.332;2022-08-06T03:07:25;3.17;;;2.95;;
13879;SDS011;7010;48.200;16.332;2022-08-06T03:09:57;3.67;;;3.10;;
13879;SDS011;7010;48.200;16.332;2022-08-06T03:12:38;3.92;;;2.67;;
13879;SDS011;7010;48.200;16.332;2022-08-06T03:15:09;3.45;;;2.88;;
13879;SDS011;7010;48.200;16.332;2022-08-06T03:17:58;3.05;;;2.78;;
13879;SDS011;7010;48.200;16.332;2022-08-06T03:20:31;4.13;;;3.03;;
13879;SDS011;7010;48.200;16.332;2022-08-06T03:23:04;3.47;;;3.03;;
13879;SDS011;7010;48.200;16.332;2022-08-06T03:25:35;3.10;;;2.90;;
13879;SDS011;7010;48.200;16.332;2022-08-06T03:28:07;2.92;;;2.72;;
13879;SDS011;7010;48.200;16.332;2022-08-06T03:30:48;2.67;;;2.47;;
13879;SDS011;7010;48.200;16.332;2022-08-06T03:33:21;3.95;;;3.50;;
13879;SDS011;7010;48.200;16.332;2022-08-06T03:36:12;3.78;;;3.47;;
13879;SDS011;7010;48.200;16.332;2022-08-06T03:38:43;2.70;;;2.53;;
13879;SDS011;7010;48.200;16.332;2022-08-06T03:41:21;6.28;;;3.20;;
13879;SDS011;7010;48.200;16.332;2022-08-06T03:43:59;6.18;;;3.78;;
13879;SDS011;7010;48.200;16.332;2022-08-06T03:46:31;3.70;;;3.42;;
13879;SDS011;7010;48.200;16.332;2022-08-06T03:49:08;3.42;;;3.13;;
13879;SDS011;7010;48.200;16.332;2022-08-06T03:51:53;3.42;;;3.20;;
13879;SDS011;7010;48.200;16.332;2022-08-06T03:54:25;3.13;;;2.92;;
13879;SDS011;7010;48.200;16.332;2022-08-06T03:57:00;3.50;;;3.25;;
13879;SDS011;7010;48.200;16.332;2022-08-06T03:59:36;3.17;;;2.97;;
13879;SDS011;7010;48.200;16.332;2022-08-06T04:02:27;2.95;;;2.75;;
13879;SDS011;7010;48.200;16.332;2022-08-06T04:05:11;3.53;;;3.22;;
13879;SDS011;7010;48.200;16.332;2022-08-06T04:07:48;3.88;;;3.58;;
13879;SDS011;7010;48.200;16.332;2022-08-06T04:10:21;3.15;;;2.95;;
13879;SDS011;7010;48.200;16.332;2022-08-06T04:12:59;6.72;;;3.33;;
13879;SDS011;7010;48.200;16.332;2022-08-06T04:15:53;3.53;;;3.22;;
13879;SDS011;7010;48.200;16.332;2022-08-06T04:18:24;3.15;;;2.95;;
13879;SDS011;7010;48.200;16.332;2022-08-06T04:20:55;3.03;;;2.83;;
13879;SDS011;7010;48.200;16.332;2022-08-06T04:23:48;3.88;;;3.55;;
13879;SDS011;7010;48.200;16.332;2022-08-06T04:26:19;3.30;;;3.00;;
13879;SDS011;7010;48.200;16.332;2022-08-06T04:28:51;2.90;;;2.70;;
13879;SDS011;7010;48.200;16.332;2022-08-06T04:31:24;3.40;;;3.10;;
13879;SDS011;7010;48.200;16.332;2022-08-06T04:34:16;2.97;;;2.78;;
13879;SDS011;7010;48.200;16.332;2022-08-06T04:36:52;2.70;;;2.50;;
13879;SDS011;7010;48.200;16.332;2022-08-06T04:39:23;3.05;;;2.85;;
13879;SDS011;7010;48.200;16.332;2022-08-06T04:42:12;2.90;;;2.70;;
13879;SDS011;7010;48.200;16.332;2022-08-06T04:44:41;4.18;;;3.78;;
13879;SDS011;7010;48.200;16.332;2022-08-06T04:47:11;4.57;;;3.17;;
13879;SDS011;7010;48.200;16.332;2022-08-06T04:49:45;4.28;;;3.25;;
13879;SDS011;7010;48.200;16.332;2022-08-06T04:52:28;3.60;;;3.30;;
13879;SDS011;7010;48.200;16.332;2022-08-06T04:55:15;3.45;;;3.25;;
13879;SDS011;7010;48.200;16.332;2022-08-06T04:57:49;4.70;;;4.30;;
13879;SDS011;7010;48.200;16.332;2022-08-06T05:00:29;3.20;;;3.00;;
13879;SDS011;7010;48.200;16.332;2022-08-06T05:03:18;3.53;;;3.33;;
13879;SDS011;7010;48.200;16.332;2022-08-06T05:06:08;3.40;;;3.13;;
13879;SDS011;7010;48.200;16.332;2022-08-06T05:08:42;3.60;;;3.40;;
13879;SDS011;7010;48.200;16.332;2022-08-06T05:11:21;3.88;;;3.58;;
13879;SDS011;7010;48.200;16.332;2022-08-06T05:13:54;3.45;;;3.15;;
13879;SDS011;7010;48.200;16.332;2022-08-06T05:16:25;3.95;;;3.65;;
13879;SDS011;7010;48.200;16.332;2022-08-06T05:18:57;3.67;;;3.38;;
13879;SDS011;7010;48.200;16.332;2022-08-06T05:21:48;3.42;;;3.13;;
13879;SDS011;7010;48.200;16.332;2022-08-06T05:24:38;3.08;;;2.88;;
13879;SDS011;7010;48.200;16.332;2022-08-06T05:27:29;3.50;;;3.28;;
13879;SDS011;7010;48.200;16.332;2022-08-06T05:30:17;3.25;;;3.05;;
13879;SDS011;7010;48.200;16.332;2022-08-06T05:32:47;3.58;;;3.33;;
13879;SDS011;7010;48.200;16.332;2022-08-06T05:35:21;3.38;;;3.08;;
13879;SDS011;7010;48.200;16.332;2022-08-06T05:38:10;4.15;;;3.75;;
13879;SDS011;7010;48.200;16.332;2022-08-06T05:40:46;3.83;;;3.58;;
13879;SDS011;7010;48.200;16.332;2022-08-06T05:43:24;3.60;;;3.30;;
13879;SDS011;7010;48.200;16.332;2022-08-06T05:46:15;3.15;;;2.95;;
13879;SDS011;7010;48.200;16.332;2022-08-06T05:48:52;2.92;;;2.72;;
13879;SDS011;7010;48.200;16.332;2022-08-06T05:51:32;3.28;;;3.05;;
13879;SDS011;7010;48.200;16.332;2022-08-06T05:54:11;4.05;;;3.65;;
13879;SDS011;7010;48.200;16.332;2022-08-06T05:56:45;3.33;;;3.13;;
13879;SDS011;7010;48.200;16.332;2022-08-06T05:59:21;3.65;;;3.35;;
13879;SDS011;7010;48.200;16.332;2022-08-06T06:02:14;4.55;;;4.07;;
13879;SDS011;7010;48.200;16.332;2022-08-06T06:04:45;3.58;;;3.35;;
13879;SDS011;7010;48.200;16.332;2022-08-06T06:07:35;4.25;;;3.88;;
13879;SDS011;7010;48.200;16.332;2022-08-06T06:10:24;3.72;;;3.42;;
13879;SDS011;7010;48.200;16.332;2022-08-06T06:12:53;2.90;;;2.70;;
13879;SDS011;7010;48.200;16.332;2022-08-06T06:15:25;3.25;;;2.92;;
13879;SDS011;7010;48.200;16.332;2022-08-06T06:18:18;3.75;;;3.45;;
13879;SDS011;7010;48.200;16.332;2022-08-06T06:21:02;4.88;;;3.95;;
13879;SDS011;7010;48.200;16.332;2022-08-06T06:23:48;3.17;;;2.97;;
13879;SDS011;7010;48.200;16.332;2022-08-06T06:26:24;3.22;;;3.03;;
13879;SDS011;7010;48.200;16.332;2022-08-06T06:29:17;3.17;;;2.97;;
13879;SDS011;7010;48.200;16.332;2022-08-06T06:35:13;3.88;;;3.58;;
13879;SDS011;7010;48.200;16.332;2022-08-06T06:37:51;3.10;;;2.90;;
13879;SDS011;7010;48.200;16.332;2022-08-06T06:40:30;3.92;;;3.63;;
13879;SDS011;7010;48.200;16.332;2022-08-06T06:43:33;7.43;;;3.90;;
13879;SDS011;7010;48.200;16.332;2022-08-06T06:46:13;4.03;;;3.60;;
13879;SDS011;7010;48.200;16.332;2022-08-06T06:49:09;3.72;;;3.45;;
13879;SDS011;7010;48.200;16.332;2022-08-06T06:52:02;4.20;;;3.67;;
13879;SDS011;7010;48.200;16.332;2022-08-06T06:54:36;4.10;;;3.70;;
13879;SDS011;7010;48.200;16.332;2022-08-06T06:57:11;4.60;;;3.58;;
13879;SDS011;7010;48.200;16.332;2022-08-06T06:59:49;2.92;;;2.70;;
13879;SDS011;7010;48.200;16.332;2022-08-06T07:02:40;3.05;;;2.63;;
13879;SDS011;7010;48.200;16.332;2022-08-06T07:05:13;2.38;;;2.28;;
13879;SDS011;7010;48.200;16.332;2022-08-06T07:08:03;3.13;;;2.90;;
13879;SDS011;7010;48.200;16.332;2022-08-06T07:10:32;1.77;;;1.67;;
13879;SDS011;7010;48.200;16.332;2022-08-06T07:13:02;2.00;;;1.90;;
13879;SDS011;7010;48.200;16.332;2022-08-06T07:15:41;2.10;;;2.00;;
13879;SDS011;7010;48.200;16.332;2022-08-06T07:18:19;2.45;;;2.28;;
13879;SDS011;7010;48.200;16.332;2022-08-06T07:20:59;2.45;;;2.25;;
13879;SDS011;7010;48.200;16.332;2022-08-06T07:23:29;1.83;;;1.70;;
13879;SDS011;7010;48.200;16.332;2022-08-06T07:26:19;1.90;;;1.80;;
13879;SDS011;7010;48.200;16.332;2022-08-06T07:28:51;2.38;;;1.80;;
13879;SDS011;7010;48.200;16.332;2022-08-06T07:31:29;2.05;;;1.95;;
13879;SDS011;7010;48.200;16.332;2022-08-06T07:34:02;2.47;;;1.67;;
13879;SDS011;7010;48.200;16.332;2022-08-06T07:36:37;2.42;;;1.80;;
13879;SDS011;7010;48.200;16.332;2022-08-06T07:39:23;1.73;;;1.60;;
13879;SDS011;7010;48.200;16.332;2022-08-06T07:41:59;1.80;;;1.67;;
13879;SDS011;7010;48.200;16.332;2022-08-06T07:44:38;1.30;;;1.30;;
13879;SDS011;7010;48.200;16.332;2022-08-06T07:47:24;1.60;;;1.50;;
13879;SDS011;7010;48.200;16.332;2022-08-06T07:50:12;1.40;;;1.40;;
13879;SDS011;7010;48.200;16.332;2022-08-06T07:52:43;1.23;;;1.23;;
13879;SDS011;7010;48.200;16.332;2022-08-06T07:55:12;1.48;;;1.38;;
13879;SDS011;7010;48.200;16.332;2022-08-06T07:57:41;1.38;;;1.27;;
13879;SDS011;7010;48.200;16.332;2022-08-06T08:00:21;1.25;;;1.15;;
13879;SDS011;7010;48.200;16.332;2022-08-06T08:02:54;1.70;;;1.52;;
13879;SDS011;7010;48.200;16.332;2022-08-06T08:06:01;1.20;;;1.20;;
13879;SDS011;7010;48.200;16.332;2022-08-06T08:08:48;1.10;;;1.10;;
13879;SDS011;7010;48.200;16.332;2022-08-06T08:11:22;1.10;;;1.10;;
13879;SDS011;7010;48.200;16.332;2022-08-06T08:14:12;1.10;;;1.05;;
13879;SDS011;7010;48.200;16.332;2022-08-06T08:16:45;1.00;;;1.00;;
13879;SDS011;7010;48.200;16.332;2022-08-06T08:19:21;1.40;;;1.00;;
13879;SDS011;7010;48.200;16.332;2022-08-06T08:21:52;0.90;;;0.90;;
13879;SDS011;7010;48.200;16.332;2022-08-06T08:24:24;0.90;;;0.90;;
13879;SDS011;7010;48.200;16.332;2022-08-06T08:26:57;1.10;;;1.10;;
13879;SDS011;7010;48.200;16.332;2022-08-06T08:29:38;1.30;;;1.20;;
13879;SDS011;7010;48.200;16.332;2022-08-06T08:32:25;1.10;;;1.10;;
13879;SDS011;7010;48.200;16.332;2022-08-06T08:35:12;1.40;;;1.30;;
13879;SDS011;7010;48.200;16.332;2022-08-06T08:37:46;1.48;;;1.23;;
13879;SDS011;7010;48.200;16.332;2022-08-06T08:40:23;2.08;;;1.88;;
13879;SDS011;7010;48.200;16.332;2022-08-06T08:42:54;0.90;;;0.90;;
13879;SDS011;7010;48.200;16.332;2022-08-06T08:45:31;1.10;;;1.10;;
13879;SDS011;7010;48.200;16.332;2022-08-06T08:48:02;1.63;;;1.25;;
13879;SDS011;7010;48.200;16.332;2022-08-06T08:50:32;1.05;;;1.05;;
13879;SDS011;7010;48.200;16.332;2022-08-06T08:53:03;1.33;;;1.23;;
13879;SDS011;7010;48.200;16.332;2022-08-06T08:55:38;1.20;;;1.00;;
13879;SDS011;7010;48.200;16.332;2022-08-06T08:58:27;0.95;;;0.95;;
13879;SDS011;7010;48.200;16.332;2022-08-06T09:01:10;1.13;;;1.13;;
13879;SDS011;7010;48.200;16.332;2022-08-06T09:04:01;1.30;;;1.20;;
13879;SDS011;7010;48.200;16.332;2022-08-06T09:06:31;1.10;;;1.10;;
13879;SDS011;7010;48.200;16.332;2022-08-06T09:09:05;2.25;;;1.50;;
13879;SDS011;7010;48.200;16.332;2022-08-06T09:11:42;1.55;;;1.45;;
13879;SDS011;7010;48.200;16.332;2022-08-06T09:14:32;1.60;;;1.50;;
13879;SDS011;7010;48.200;16.332;2022-08-06T09:17:00;1.40;;;1.30;;
13879;SDS011;7010;48.200;16.332;2022-08-06T09:19:35;3.63;;;1.08;;
13879;SDS011;7010;48.200;16.332;2022-08-06T09:22:07;0.95;;;0.95;;
13879;SDS011;7010;48.200;16.332;2022-08-06T09:24:37;1.70;;;1.60;;
13879;SDS011;7010;48.200;16.332;2022-08-06T09:27:09;1.98;;;1.60;;
13879;SDS011;7010;48.200;16.332;2022-08-06T09:30:05;0.95;;;0.95;;
13879;SDS011;7010;48.200;16.332;2022-08-06T09:32:57;1.10;;;1.10;;
13879;SDS011;7010;48.200;16.332;2022-08-06T09:36:11;1.50;;;1.40;;
13879;SDS011;7010;48.200;16.332;2022-08-06T09:38:56;1.10;;;1.10;;
13879;SDS011;7010;48.200;16.332;2022-08-06T09:41:27;2.13;;;1.60;;
13879;SDS011;7010;48.200;16.332;2022-08-06T09:43:59;0.82;;;0.82;;
13879;SDS011;7010;48.200;16.332;2022-08-06T09:46:58;1.75;;;1.42;;
13879;SDS011;7010;48.200;16.332;2022-08-06T09:49:27;17.88;;;1.35;;
13879;SDS011;7010;48.200;16.332;2022-08-06T09:52:25;1.02;;;1.02;;
13879;SDS011;7010;48.200;16.332;2022-08-06T09:54:54;0.90;;;0.90;;
13879;SDS011;7010;48.200;16.332;2022-08-06T09:57:26;0.70;;;0.70;;
13879;SDS011;7010;48.200;16.332;2022-08-06T10:00:10;0.90;;;0.90;;
13879;SDS011;7010;48.200;16.332;2022-08-06T10:02:40;0.95;;;0.95;;
13879;SDS011;7010;48.200;16.332;2022-08-06T10:05:17;1.20;;;0.95;;
13879;SDS011;7010;48.200;16.332;2022-08-06T10:08:00;0.85;;;0.70;;
13879;SDS011;7010;48.200;16.332;2022-08-06T10:10:41;0.85;;;0.85;;
13879;SDS011;7010;48.200;16.332;2022-08-06T10:13:18;1.45;;;1.08;;
13879;SDS011;7010;48.200;16.332;2022-08-06T10:15:54;1.85;;;1.35;;
13879;SDS011;7010;48.200;16.332;2022-08-06T10:18:30;1.23;;;1.13;;
13879;SDS011;7010;48.200;16.332;2022-08-06T10:21:20;0.95;;;0.95;;
13879;SDS011;7010;48.200;16.332;2022-08-06T10:23:53;0.85;;;0.85;;
13879;SDS011;7010;48.200;16.332;2022-08-06T10:26:24;1.40;;;1.30;;
13879;SDS011;7010;48.200;16.332;2022-08-06T10:29:00;1.20;;;1.05;;
13879;SDS011;7010;48.200;16.332;2022-08-06T10:31:32;0.90;;;0.90;;
13879;SDS011;7010;48.200;16.332;2022-08-06T10:34:02;1.48;;;1.38;;
13879;SDS011;7010;48.200;16.332;2022-08-06T10:36:36;2.05;;;1.35;;
13879;SDS011;7010;48.200;16.332;2022-08-06T10:39:08;1.08;;;1.08;;
13879;SDS011;7010;48.200;16.332;2022-08-06T10:41:57;1.25;;;1.25;;
13879;SDS011;7010;48.200;16.332;2022-08-06T10:44:41;1.60;;;1.50;;
13879;SDS011;7010;48.200;16.332;2022-08-06T10:47:13;1.40;;;1.35;;
13879;SDS011;7010;48.200;16.332;2022-08-06T10:50:03;1.55;;;1.45;;
13879;SDS011;7010;48.200;16.332;2022-08-06T10:52:52;1.50;;;1.40;;
13879;SDS011;7010;48.200;16.332;2022-08-06T10:55:21;1.17;;;1.15;;
13879;SDS011;7010;48.200;16.332;2022-08-06T10:58:03;1.35;;;1.30;;
13879;SDS011;7010;48.200;16.332;2022-08-06T11:00:33;2.90;;;2.25;;
13879;SDS011;7010;48.200;16.332;2022-08-06T11:03:06;1.73;;;1.63;;
13879;SDS011;7010;48.200;16.332;2022-08-06T11:05:43;2.03;;;1.90;;
13879;SDS011;7010;48.200;16.332;2022-08-06T11:08:23;2.92;;;2.15;;
13879;SDS011;7010;48.200;16.332;2022-08-06T11:11:20;1.83;;;1.73;;
13879;SDS011;7010;48.200;16.332;2022-08-06T11:14:05;2.55;;;1.77;;
13879;SDS011;7010;48.200;16.332;2022-08-06T11:16:53;1.40;;;1.30;;
13879;SDS011;7010;48.200;16.332;2022-08-06T11:19:41;1.83;;;1.73;;
13879;SDS011;7010;48.200;16.332;2022-08-06T11:22:31;2.05;;;1.95;;
13879;SDS011;7010;48.200;16.332;2022-08-06T11:25:01;1.70;;;1.60;;
13879;SDS011;7010;48.200;16.332;2022-08-06T11:27:51;3.55;;;2.17;;
13879;SDS011;7010;48.200;16.332;2022-08-06T11:30:37;1.60;;;1.50;;
13879;SDS011;7010;48.200;16.332;2022-08-06T11:33:12;1.80;;;1.70;;
13879;SDS011;7010;48.200;16.332;2022-08-06T11:35:44;1.83;;;1.73;;
13879;SDS011;7010;48.200;16.332;2022-08-06T11:41:44;1.80;;;1.70;;
13879;SDS011;7010;48.200;16.332;2022-08-06T11:44:25;1.60;;;1.50;;
13879;SDS011;7010;48.200;16.332;2022-08-06T11:47:05;2.53;;;1.85;;
13879;SDS011;7010;48.200;16.332;2022-08-06T11:49:37;2.17;;;2.08;;
13879;SDS011;7010;48.200;16.332;2022-08-06T11:52:37;1.58;;;1.42;;
13879;SDS011;7010;48.200;16.332;2022-08-06T11:55:13;1.67;;;1.58;;
13879;SDS011;7010;48.200;16.332;2022-08-06T11:57:49;1.48;;;1.38;;
13879;SDS011;7010;48.200;16.332;2022-08-06T12:00:54;1.70;;;1.60;;
13879;SDS011;7010;48.200;16.332;2022-08-06T12:03:36;4.05;;;2.33;;
13879;SDS011;7010;48.200;16.332;2022-08-06T12:06:18;1.90;;;1.80;;
13879;SDS011;7010;48.200;16.332;2022-08-06T12:09:07;1.70;;;1.60;;
13879;SDS011;7010;48.200;16.332;2022-08-06T12:11:49;2.40;;;2.20;;
13879;SDS011;7010;48.200;16.332;2022-08-06T12:14:37;2.20;;;2.00;;
13879;SDS011;7010;48.200;16.332;2022-08-06T12:17:16;1.98;;;1.88;;
13879;SDS011;7010;48.200;16.332;2022-08-06T12:19:46;1.85;;;1.70;;
13879;SDS011;7010;48.200;16.332;2022-08-06T12:22:28;3.63;;;1.92;;
13879;SDS011;7010;48.200;16.332;2022-08-06T12:25:00;1.63;;;1.52;;
13879;SDS011;7010;48.200;16.332;2022-08-06T12:27:37;10.38;;;2.00;;
13879;SDS011;7010;48.200;16.332;2022-08-06T12:30:16;1.77;;;1.50;;
13879;SDS011;7010;48.200;16.332;2022-08-06T12:33:03;2.45;;;2.15;;
13879;SDS011;7010;48.200;16.332;2022-08-06T12:35:48;2.55;;;2.35;;
13879;SDS011;7010;48.200;16.332;2022-08-06T12:38:18;1.75;;;1.65;;
13879;SDS011;7010;48.200;16.332;2022-08-06T12:40:55;2.30;;;2.00;;
13879;SDS011;7010;48.200;16.332;2022-08-06T12:43:25;1.95;;;1.85;;
13879;SDS011;7010;48.200;16.332;2022-08-06T12:46:12;7.70;;;2.05;;
13879;SDS011;7010;48.200;16.332;2022-08-06T12:48:47;1.60;;;1.50;;
13879;SDS011;7010;48.200;16.332;2022-08-06T12:51:17;1.65;;;1.60;;
13879;SDS011;7010;48.200;16.332;2022-08-06T12:53:53;2.28;;;2.15;;
13879;SDS011;7010;48.200;16.332;2022-08-06T12:56:26;2.05;;;1.95;;
13879;SDS011;7010;48.200;16.332;2022-08-06T12:59:02;1.92;;;1.52;;
13879;SDS011;7010;48.200;16.332;2022-08-06T13:01:49;1.98;;;1.88;;
13879;SDS011;7010;48.200;16.332;2022-08-06T13:04:39;2.40;;;2.20;;
13879;SDS011;7010;48.200;16.332;2022-08-06T13:07:10;2.17;;;2.08;;
13879;SDS011;7010;48.200;16.332;2022-08-06T13:09:40;2.63;;;2.42;;
13879;SDS011;7010;48.200;16.332;2022-08-06T13:12:32;2.20;;;2.10;;
13879;SDS011;7010;48.200;16.332;2022-08-06T13:15:21;2.28;;;2.10;;
13879;SDS011;7010;48.200;16.332;2022-08-06T13:18:00;2.63;;;2.42;;
13879;SDS011;7010;48.200;16.332;2022-08-06T13:20:50;2.22;;;2.08;;
13879;SDS011;7010;48.200;16.332;2022-08-06T13:23:28;2.47;;;1.98;;
13879;SDS011;7010;48.200;16.332;2022-08-06T13:26:10;2.58;;;2.38;;
13879;SDS011;7010;48.200;16.332;2022-08-06T13:32:10;3.22;;;2.35;;
13879;SDS011;7010;48.200;16.332;2022-08-06T13:34:59;2.47;;;2.30;;
13879;SDS011;7010;48.200;16.332;2022-08-06T13:37:45;2.75;;;2.50;;
13879;SDS011;7010;48.200;16.332;2022-08-06T13:40:37;2.60;;;2.40;;
13879;SDS011;7010;48.200;16.332;2022-08-06T13:43:32;2.60;;;2.40;;
13879;SDS011;7010;48.200;16.332;2022-08-06T13:46:10;3.25;;;2.50;;
13879;SDS011;7010;48.200;16.332;2022-08-06T13:48:46;2.90;;;2.70;;
13879;SDS011;7010;48.200;16.332;2022-08-06T13:51:18;3.20;;;2.90;;
13879;SDS011;7010;48.200;16.332;2022-08-06T13:53:54;2.75;;;2.55;;
13879;SDS011;7010;48.200;16.332;2022-08-06T13:56:29;3.13;;;2.92;;
13879;SDS011;7010;48.200;16.332;2022-08-06T13:59:01;3.83;;;3.53;;
13879;SDS011;7010;48.200;16.332;2022-08-06T14:01:32;3.92;;;3.58;;
13879;SDS011;7010;48.200;16.332;2022-08-06T14:04:12;3.72;;;3.42;;
13879;SDS011;7010;48.200;16.332;2022-08-06T14:06:43;8.02;;;3.72;;
13879;SDS011;7010;48.200;16.332;2022-08-06T14:09:14;4.00;;;3.60;;
13879;SDS011;7010;48.200;16.332;2022-08-06T14:11:48;4.50;;;4.10;;
13879;SDS011;7010;48.200;16.332;2022-08-06T14:14:21;4.40;;;4.00;;
13879;SDS011;7010;48.200;16.332;2022-08-06T14:16:55;4.03;;;3.67;;
13879;SDS011;7010;48.200;16.332;2022-08-06T14:19:24;4.32;;;3.92;;
13879;SDS011;7010;48.200;16.332;2022-08-06T14:22:13;5.53;;;3.45;;
13879;SDS011;7010;48.200;16.332;2022-08-06T14:24:43;3.90;;;3.63;;
13879;SDS011;7010;48.200;16.332;2022-08-06T14:27:18;3.75;;;3.45;;
13879;SDS011;7010;48.200;16.332;2022-08-06T14:29:49;3.30;;;3.10;;
13879;SDS011;7010;48.200;16.332;2022-08-06T14:32:40;3.35;;;3.15;;
13879;SDS011;7010;48.200;16.332;2022-08-06T14:35:13;3.63;;;3.35;;
13879;SDS011;7010;48.200;16.332;2022-08-06T14:37:42;4.03;;;3.72;;
13879;SDS011;7010;48.200;16.332;2022-08-06T14:40:17;3.83;;;3.53;;
13879;SDS011;7010;48.200;16.332;2022-08-06T14:43:26;3.80;;;3.50;;
13879;SDS011;7010;48.200;16.332;2022-08-06T14:46:23;3.70;;;3.50;;
13879;SDS011;7010;48.200;16.332;2022-08-06T14:48:57;3.78;;;3.47;;
13879;SDS011;7010;48.200;16.332;2022-08-06T14:51:34;4.38;;;3.72;;
13879;SDS011;7010;48.200;16.332;2022-08-06T14:54:22;4.30;;;3.90;;
13879;SDS011;7010;48.200;16.332;2022-08-06T14:56:57;4.10;;;3.80;;
13879;SDS011;7010;48.200;16.332;2022-08-06T14:59:39;4.55;;;4.15;;
13879;SDS011;7010;48.200;16.332;2022-08-06T15:02:17;4.00;;;3.70;;
13879;SDS011;7010;48.200;16.332;2022-08-06T15:04:52;5.88;;;3.90;;
13879;SDS011;7010;48.200;16.332;2022-08-06T15:07:27;3.40;;;3.20;;
13879;SDS011;7010;48.200;16.332;2022-08-06T15:10:08;3.10;;;2.90;;
13879;SDS011;7010;48.200;16.332;2022-08-06T15:12:53;3.58;;;3.28;;
13879;SDS011;7010;48.200;16.332;2022-08-06T15:15:28;3.53;;;3.33;;
13879;SDS011;7010;48.200;16.332;2022-08-06T15:18:13;3.03;;;2.38;;
13879;SDS011;7010;48.200;16.332;2022-08-06T15:21:03;3.25;;;2.97;;
13879;SDS011;7010;48.200;16.332;2022-08-06T15:23:39;2.20;;;2.10;;
13879;SDS011;7010;48.200;16.332;2022-08-06T15:26:20;3.65;;;3.28;;
13879;SDS011;7010;48.200;16.332;2022-08-06T15:29:09;3.42;;;2.58;;
13879;SDS011;7010;48.200;16.332;2022-08-06T15:31:41;3.00;;;2.78;;
13879;SDS011;7010;48.200;16.332;2022-08-06T15:34:11;2.65;;;2.45;;
13879;SDS011;7010;48.200;16.332;2022-08-06T15:36:53;2.47;;;2.28;;
13879;SDS011;7010;48.200;16.332;2022-08-06T15:39:27;1.60;;;1.50;;
13879;SDS011;7010;48.200;16.332;2022-08-06T15:42:16;1.65;;;1.55;;
13879;SDS011;7010;48.200;16.332;2022-08-06T15:44:44;2.00;;;1.90;;
13879;SDS011;7010;48.200;16.332;2022-08-06T15:47:13;1.52;;;1.42;;
13879;SDS011;7010;48.200;16.332;2022-08-06T15:49:41;1.80;;;1.70;;
13879;SDS011;7010;48.200;16.332;2022-08-06T15:52:30;1.58;;;1.48;;
13879;SDS011;7010;48.200;16.332;2022-08-06T15:55:03;1.70;;;1.60;;
13879;SDS011;7010;48.200;16.332;2022-08-06T15:57:42;1.35;;;1.27;;
13879;SDS011;7010;48.200;16.332;2022-08-06T16:00:30;1.38;;;1.38;;
13879;SDS011;7010;48.200;16.332;2022-08-06T16:03:01;1.35;;;1.33;;
13879;SDS011;7010;48.200;16.332;2022-08-06T16:05:33;1.77;;;1.67;;
13879;SDS011;7010;48.200;16.332;2022-08-06T16:08:23;1.98;;;1.60;;
13879;SDS011;7010;48.200;16.332;2022-08-06T16:11:00;1.90;;;1.80;;